Time;durP1;ratioP1;P1;durP2;ratioP2;P2;SDS_P1;SDS_P2;PMS_P1;PMS_P2;Temp;Humidity;BMP_temperature;BMP_pressure;BME280_temperature;BME280_humidity;BME280_pressure;Samples;Min_cycle;Max_cycle;Signal;HPM_P1;HPM_P2
2021/01/16 00:00:52;;;;;;;52.27;32.70;;;3.70;80.90;;;;;;5053857;28;20037;-73
2021/01/16 00:03:18;;;;;;;57.67;35.53;;;3.70;80.80;;;;;;5035537;28;20029;-74
2021/01/16 00:05:45;;;;;;;61.13;37.37;;;3.70;81.30;;;;;;5019586;28;20037;-74
2021/01/16 00:08:13;;;;;;;54.27;34.70;;;3.70;81.50;;;;;;5053357;28;20462;-74
2021/01/16 00:10:51;;;;;;;47.60;30.57;;;3.80;81.50;;;;;;5035096;28;20175;-74
2021/01/16 00:13:19;;;;;;;45.80;30.60;;;3.80;81.30;;;;;;5053172;28;20457;-74
2021/01/16 00:15:45;;;;;;;38.03;25.33;;;3.90;81.20;;;;;;5035791;28;20025;-74
2021/01/16 00:18:13;;;;;;;41.63;26.83;;;3.80;81.00;;;;;;5035252;28;20372;-74
2021/01/16 00:20:44;;;;;;;40.63;26.50;;;3.80;80.70;;;;;;5053746;28;20033;-74
2021/01/16 00:23:11;;;;;;;40.10;25.00;;;3.70;80.70;;;;;;5052550;28;20041;-75
2021/01/16 00:25:37;;;;;;;43.67;26.30;;;3.70;80.70;;;;;;5035611;28;20036;-74
2021/01/16 00:28:03;;;;;;;41.00;27.43;;;3.60;81.10;;;;;;5019115;28;20033;-81
2021/01/16 00:30:32;;;;;;;43.23;26.57;;;3.60;81.10;;;;;;5018759;28;20048;-74
2021/01/16 00:32:59;;;;;;;39.60;26.37;;;3.50;81.10;;;;;;5035212;28;20035;-74
2021/01/16 00:35:26;;;;;;;40.47;27.27;;;3.50;80.90;;;;;;5034710;28;20106;-75
2021/01/16 00:37:52;;;;;;;39.77;25.57;;;3.40;81.20;;;;;;5053519;28;20025;-75
2021/01/16 00:40:23;;;;;;;45.10;28.60;;;3.50;81.70;;;;;;5035406;28;20116;-75
2021/01/16 00:42:51;;;;;;;37.40;24.97;;;3.60;81.80;;;;;;5053907;28;20105;-75
2021/01/16 00:45:18;;;;;;;43.40;25.80;;;3.60;81.50;;;;;;5035030;28;20075;-75
2021/01/16 00:47:44;;;;;;;39.57;26.47;;;3.50;81.10;;;;;;5053929;28;20116;-74
2021/01/16 00:50:12;;;;;;;39.17;24.87;;;3.50;81.20;;;;;;5017725;28;20132;-79
2021/01/16 00:52:38;;;;;;;43.47;26.27;;;3.50;81.40;;;;;;5053589;28;20048;-74
2021/01/16 00:55:08;;;;;;;41.30;26.20;;;3.60;81.60;;;;;;5053140;28;20024;-74
2021/01/16 00:57:34;;;;;;;35.97;23.93;;;3.60;81.80;;;;;;5018571;28;20112;-74
2021/01/16 01:00:00;;;;;;;33.47;23.33;;;3.60;81.50;;;;;;5035055;28;20116;-74
2021/01/16 01:02:26;;;;;;;36.93;22.40;;;3.60;81.70;;;;;;5033971;28;20037;-74
2021/01/16 01:04:51;;;;;;;36.60;21.90;;;3.70;81.20;;;;;;5035015;28;20033;-74
2021/01/16 01:07:17;;;;;;;34.30;22.77;;;3.60;80.90;;;;;;5034700;28;20374;-74
2021/01/16 01:09:45;;;;;;;35.47;22.47;;;3.50;80.90;;;;;;5018704;28;20128;-74
2021/01/16 01:12:12;;;;;;;32.10;20.90;;;3.50;81.20;;;;;;5048415;28;20088;-81
2021/01/16 01:14:38;;;;;;;32.43;22.57;;;3.50;81.50;;;;;;5042196;28;20037;-75
2021/01/16 01:17:15;;;;;;;31.13;19.80;;;3.50;81.50;;;;;;5018490;28;20032;-74
2021/01/16 01:19:41;;;;;;;31.20;20.43;;;3.40;81.10;;;;;;5017958;28;20072;-74
2021/01/16 01:22:07;;;;;;;32.63;20.80;;;3.40;81.10;;;;;;5034851;28;20025;-74
2021/01/16 01:24:33;;;;;;;35.20;22.77;;;3.40;81.20;;;;;;4994327;28;20506;-74
2021/01/16 01:26:58;;;;;;;38.00;22.63;;;3.30;81.60;;;;;;5011334;28;20044;-74
2021/01/16 01:29:24;;;;;;;36.73;20.93;;;3.40;82.00;;;;;;5010429;28;20040;-74
2021/01/16 01:31:50;;;;;;;36.87;22.53;;;3.50;81.90;;;;;;5012166;28;20046;-75
2021/01/16 01:34:15;;;;;;;32.17;22.00;;;3.50;82.00;;;;;;4977738;28;20038;-80
2021/01/16 01:36:41;;;;;;;32.70;22.67;;;3.60;82.30;;;;;;4994971;28;20482;-74
2021/01/16 01:39:06;;;;;;;33.77;21.63;;;3.70;82.40;;;;;;4994990;28;20030;-74
2021/01/16 01:41:37;;;;;;;35.77;21.77;;;3.70;82.20;;;;;;4978167;28;20041;-75
2021/01/16 01:44:04;;;;;;;29.13;18.97;;;3.80;82.40;;;;;;5012674;28;20053;-74
2021/01/16 01:46:31;;;;;;;31.70;20.50;;;3.80;81.70;;;;;;5010016;28;20064;-76
2021/01/16 01:48:57;;;;;;;31.60;20.60;;;3.80;81.80;;;;;;5011244;28;20117;-74
2021/01/16 01:51:24;;;;;;;29.90;20.53;;;3.80;81.80;;;;;;4994411;28;20049;-75
2021/01/16 01:53:53;;;;;;;29.17;19.93;;;3.80;81.80;;;;;;5012192;28;20022;-75
2021/01/16 01:56:22;;;;;;;32.13;19.43;;;3.80;81.70;;;;;;5009765;28;20113;-77
2021/01/16 01:58:51;;;;;;;30.23;20.13;;;3.80;81.90;;;;;;5005035;28;20089;-76
2021/01/16 02:01:18;;;;;;;29.43;19.43;;;3.80;81.30;;;;;;5009638;28;20034;-80
2021/01/16 02:03:47;;;;;;;31.83;19.37;;;3.70;81.00;;;;;;5007671;28;20033;-74
2021/01/16 02:06:13;;;;;;;28.67;19.40;;;3.60;80.30;;;;;;5010342;28;20026;-74
2021/01/16 02:08:39;;;;;;;28.80;18.80;;;3.60;80.70;;;;;;5003112;28;20696;-74
2021/01/16 02:11:04;;;;;;;32.53;19.93;;;3.50;80.50;;;;;;5003814;28;20041;-74
2021/01/16 02:13:30;;;;;;;31.90;19.33;;;3.30;79.80;;;;;;5009733;28;20030;-74
2021/01/16 02:16:03;;;;;;;31.73;20.23;;;3.20;79.50;;;;;;5009993;28;20381;-74
2021/01/16 02:18:35;;;;;;;32.38;20.00;;;3.00;79.50;;;;;;5009919;28;20021;-74
2021/01/16 02:21:03;;;;;;;31.67;19.80;;;2.80;79.80;;;;;;5010291;28;20022;-74
2021/01/16 02:23:28;;;;;;;31.77;20.80;;;2.60;79.80;;;;;;5022459;28;20120;-75
2021/01/16 02:26:13;;;;;;;28.83;19.17;;;2.60;81.20;;;;;;5046059;28;20164;-74
2021/01/16 02:28:52;;;;;;;33.00;20.63;;;2.60;81.70;;;;;;5031763;28;20037;-74
2021/01/16 02:31:18;;;;;;;33.17;19.50;;;2.70;81.80;;;;;;5051453;28;20036;-74
2021/01/16 02:33:46;;;;;;;31.87;19.80;;;2.70;81.50;;;;;;5050317;28;20331;-76
2021/01/16 02:36:17;;;;;;;28.87;18.60;;;2.80;82.60;;;;;;5032687;28;20472;-76
2021/01/16 02:39:21;;;;;;;29.90;19.63;;;3.00;82.90;;;;;;5031903;28;20340;-74
2021/01/16 02:41:52;;;;;;;29.57;18.67;;;3.10;83.00;;;;;;5031851;28;20041;-75
2021/01/16 02:44:35;;;;;;;30.63;18.30;;;3.20;82.60;;;;;;5050831;28;20029;-76
2021/01/16 02:47:12;;;;;;;30.63;18.07;;;3.30;82.30;;;;;;5050908;28;20028;-75
2021/01/16 02:49:47;;;;;;;27.37;18.33;;;3.40;82.50;;;;;;5024485;28;20583;-74
2021/01/16 02:52:18;;;;;;;28.67;18.30;;;3.50;82.60;;;;;;5050934;28;20056;-74
2021/01/16 02:54:44;;;;;;;27.63;18.03;;;3.50;82.40;;;;;;5050289;28;20031;-74
2021/01/16 02:57:10;;;;;;;29.17;17.57;;;3.60;82.40;;;;;;5050654;28;20032;-74
2021/01/16 02:59:37;;;;;;;25.63;17.20;;;3.60;82.10;;;;;;5032123;28;20443;-75
2021/01/16 03:02:04;;;;;;;26.20;17.10;;;3.70;81.70;;;;;;5033119;28;20074;-74
2021/01/16 03:04:30;;;;;;;28.73;17.60;;;3.60;81.20;;;;;;5032019;28;20040;-75
2021/01/16 03:06:58;;;;;;;33.63;17.30;;;3.60;81.20;;;;;;5016694;28;20025;-74
2021/01/16 03:09:23;;;;;;;26.20;16.83;;;3.70;81.70;;;;;;5050709;28;20122;-74
2021/01/16 03:11:51;;;;;;;26.73;17.07;;;3.70;81.60;;;;;;5032281;28;20107;-73
2021/01/16 03:14:19;;;;;;;29.37;17.70;;;3.80;81.60;;;;;;5053622;28;20462;-74
2021/01/16 03:17:12;;;;;;;25.30;15.83;;;3.80;81.20;;;;;;5038744;28;20033;-74
2021/01/16 03:19:42;;;;;;;30.35;17.88;;;3.80;81.50;;;;;;5034878;28;20121;-74
2021/01/16 03:22:33;;;;;;;25.50;16.57;;;3.80;81.40;;;;;;5057294;28;20025;-74
2021/01/16 03:24:59;;;;;;;24.67;15.90;;;3.90;81.50;;;;;;5038846;28;20048;-74
2021/01/16 03:27:26;;;;;;;25.63;16.43;;;3.90;80.90;;;;;;5039135;28;20388;-74
2021/01/16 03:29:52;;;;;;;23.83;15.93;;;3.80;80.20;;;;;;5038522;28;20074;-75
2021/01/16 03:32:19;;;;;;;29.57;17.40;;;3.70;80.10;;;;;;5057614;28;20033;-74
2021/01/16 03:34:47;;;;;;;24.93;16.30;;;3.70;80.60;;;;;;5056282;28;20104;-74
2021/01/16 03:37:14;;;;;;;23.37;16.13;;;3.70;80.70;;;;;;5022607;28;20040;-76
2021/01/16 03:39:40;;;;;;;26.30;17.23;;;3.70;80.50;;;;;;5038365;28;20389;-74
2021/01/16 03:42:08;;;;;;;26.67;17.23;;;3.70;80.60;;;;;;5039379;28;20041;-74
2021/01/16 03:44:34;;;;;;;25.80;17.17;;;3.70;80.40;;;;;;5055844;28;20028;-74
2021/01/16 03:46:59;;;;;;;25.10;15.97;;;3.60;80.00;;;;;;5057135;28;20518;-74
2021/01/16 03:49:25;;;;;;;26.97;17.73;;;3.60;80.10;;;;;;5038104;28;20469;-74
2021/01/16 03:51:51;;;;;;;26.23;16.90;;;3.50;79.70;;;;;;5034225;28;20125;-77
2021/01/16 03:54:16;;;;;;;27.30;17.07;;;3.50;79.90;;;;;;5048877;28;20082;-74
2021/01/16 03:56:42;;;;;;;27.63;17.03;;;3.50;79.60;;;;;;5039492;28;20029;-74
2021/01/16 03:59:08;;;;;;;24.17;16.57;;;3.50;79.90;;;;;;5035878;28;20030;-74
2021/01/16 04:01:34;;;;;;;28.87;17.73;;;3.40;79.80;;;;;;5031328;28;20477;-79
2021/01/16 04:04:01;;;;;;;29.20;17.10;;;3.40;79.70;;;;;;5048583;28;20037;-75
2021/01/16 04:06:26;;;;;;;25.87;16.77;;;3.40;79.70;;;;;;5018855;28;20025;-74
2021/01/16 04:08:52;;;;;;;26.43;17.77;;;3.40;80.10;;;;;;5036184;28;20035;-74
2021/01/16 04:11:18;;;;;;;31.67;18.07;;;3.40;79.50;;;;;;5056939;28;20480;-74
2021/01/16 04:13:43;;;;;;;27.20;17.63;;;3.30;79.40;;;;;;5021439;28;20101;-74
2021/01/16 04:16:09;;;;;;;30.90;17.10;;;3.20;78.80;;;;;;5056907;28;20094;-74
2021/01/16 04:18:35;;;;;;;25.33;17.37;;;3.10;79.10;;;;;;5055725;28;20029;-81
2021/01/16 04:21:02;;;;;;;30.23;18.80;;;3.10;79.50;;;;;;5038590;28;20064;-75
2021/01/16 04:23:28;;;;;;;27.67;17.20;;;3.00;79.10;;;;;;5035187;28;20065;-74
2021/01/16 04:25:53;;;;;;;28.10;18.17;;;3.00;79.40;;;;;;5033361;28;20112;-74
2021/01/16 04:28:19;;;;;;;27.87;17.73;;;3.00;79.70;;;;;;5016098;28;20028;-74
2021/01/16 04:30:45;;;;;;;29.67;18.20;;;2.90;79.30;;;;;;5031258;28;20037;-74
2021/01/16 04:33:11;;;;;;;35.50;19.73;;;2.90;79.50;;;;;;5015900;28;20029;-75
2021/01/16 04:35:37;;;;;;;32.30;19.17;;;2.90;80.00;;;;;;5014902;28;20033;-79
2021/01/16 04:38:03;;;;;;;29.27;18.47;;;2.80;79.20;;;;;;5032478;28;20033;-75
2021/01/16 04:40:29;;;;;;;30.63;18.70;;;2.70;79.40;;;;;;5015533;28;20179;-72
2021/01/16 04:42:56;;;;;;;30.90;18.57;;;2.70;79.90;;;;;;5015092;28;20171;-73
2021/01/16 04:45:22;;;;;;;33.20;20.37;;;2.60;80.00;;;;;;5033213;28;20021;-73
2021/01/16 04:47:49;;;;;;;31.60;20.07;;;2.60;79.90;;;;;;5030867;28;20112;-73
2021/01/16 04:50:19;;;;;;;30.57;18.93;;;2.60;80.60;;;;;;5032984;28;20041;-72
2021/01/16 04:52:46;;;;;;;29.30;19.37;;;2.60;80.50;;;;;;5031204;28;20033;-72
2021/01/16 04:55:14;;;;;;;34.30;20.53;;;2.60;80.30;;;;;;5031934;28;20477;-72
2021/01/16 04:57:41;;;;;;;31.30;18.97;;;2.60;80.80;;;;;;5032322;28;20025;-79
2021/01/16 05:00:12;;;;;;;30.13;19.23;;;2.70;81.20;;;;;;5032950;28;20037;-73
2021/01/16 05:02:40;;;;;;;32.10;19.77;;;2.70;80.80;;;;;;5031206;28;20112;-78
2021/01/16 05:05:16;;;;;;;32.43;20.27;;;2.70;80.90;;;;;;5032567;28;20035;-74
2021/01/16 05:07:42;;;;;;;32.40;19.73;;;2.60;80.40;;;;;;5030966;28;20080;-77
2021/01/16 05:10:09;;;;;;;32.80;21.27;;;2.60;80.50;;;;;;5031418;28;20040;-74
2021/01/16 05:12:58;;;;;;;29.13;19.27;;;2.60;80.90;;;;;;5031703;28;20038;-73
2021/01/16 05:15:29;;;;;;;28.37;18.03;;;2.60;81.10;;;;;;5032381;28;20040;-75
2021/01/16 05:17:59;;;;;;;32.43;18.70;;;2.70;81.40;;;;;;5031566;28;20421;-73
2021/01/16 05:20:25;;;;;;;29.37;18.63;;;2.80;81.60;;;;;;5032719;28;20466;-73
2021/01/16 05:22:51;;;;;;;31.63;19.00;;;2.80;81.50;;;;;;5031181;28;20469;-73
2021/01/16 05:25:16;;;;;;;27.27;18.37;;;2.90;81.50;;;;;;5052259;28;20036;-73
2021/01/16 05:27:58;;;;;;;30.00;19.23;;;2.90;81.70;;;;;;5034043;28;20036;-78
2021/01/16 05:30:24;;;;;;;29.23;18.83;;;3.00;81.30;;;;;;5052377;28;20029;-74
2021/01/16 05:32:50;;;;;;;27.47;17.30;;;3.00;81.00;;;;;;5017163;28;20064;-73
2021/01/16 05:35:18;;;;;;;27.80;18.37;;;3.00;81.10;;;;;;5051892;28;20060;-73
2021/01/16 05:37:45;;;;;;;29.73;18.57;;;3.00;81.00;;;;;;5033709;28;20033;-80
2021/01/16 05:40:12;;;;;;;30.27;17.57;;;3.10;81.30;;;;;;5051869;28;20532;-74
2021/01/16 05:42:39;;;;;;;24.87;16.87;;;3.20;81.60;;;;;;5034384;28;20037;-73
2021/01/16 05:45:12;;;;;;;27.17;16.27;;;3.30;81.70;;;;;;5033888;28;20109;-73
2021/01/16 05:47:42;;;;;;;30.98;17.52;;;3.50;81.80;;;;;;5033846;28;20488;-73
2021/01/16 05:50:10;;;;;;;25.03;16.60;;;3.50;81.40;;;;;;5051317;28;20093;-73
2021/01/16 05:52:40;;;;;;;29.17;18.07;;;3.50;81.50;;;;;;5033942;28;20029;-74
2021/01/16 05:55:07;;;;;;;30.60;18.37;;;3.60;81.30;;;;;;5033255;28;20032;-73
2021/01/16 05:57:34;;;;;;;30.93;19.37;;;3.40;80.20;;;;;;5033716;28;20550;-74
2021/01/16 06:00:02;;;;;;;27.60;17.30;;;3.30;79.50;;;;;;5032858;28;20036;-73
2021/01/16 06:02:32;;;;;;;27.50;18.53;;;3.20;80.10;;;;;;5034184;28;20032;-74
2021/01/16 06:04:58;;;;;;;27.53;18.50;;;3.10;80.00;;;;;;5033071;28;20029;-74
2021/01/16 06:07:26;;;;;;;28.93;17.93;;;3.10;80.30;;;;;;5033583;28;20025;-73
2021/01/16 06:09:53;;;;;;;29.80;18.50;;;3.00;80.50;;;;;;5032809;28;20123;-73
2021/01/16 06:12:20;;;;;;;29.43;18.90;;;2.90;80.10;;;;;;5017249;28;20461;-73
2021/01/16 06:14:47;;;;;;;34.00;21.07;;;2.90;80.70;;;;;;5016768;28;20032;-79
2021/01/16 06:17:15;;;;;;;28.80;18.90;;;2.90;80.70;;;;;;5016305;28;20116;-74
2021/01/16 06:19:48;;;;;;;31.93;19.57;;;2.80;80.70;;;;;;5033341;28;20369;-75
2021/01/16 06:22:17;;;;;;;28.33;17.97;;;2.90;81.30;;;;;;5051136;28;20473;-74
2021/01/16 06:24:48;;;;;;;31.10;19.07;;;3.00;81.20;;;;;;5017275;28;20053;-74
2021/01/16 06:27:22;;;;;;;29.77;17.90;;;3.00;81.10;;;;;;5051262;28;20021;-74
2021/01/16 06:29:59;;;;;;;30.17;18.70;;;3.00;81.30;;;;;;5032982;28;20389;-79
2021/01/16 06:32:27;;;;;;;28.07;17.77;;;3.00;81.00;;;;;;5033081;28;20028;-74
2021/01/16 06:35:08;;;;;;;28.90;18.93;;;3.10;81.80;;;;;;5032799;28;20021;-74
2021/01/16 06:37:45;;;;;;;28.97;18.67;;;3.20;81.70;;;;;;5051197;28;20032;-74
2021/01/16 06:40:12;;;;;;;30.43;19.43;;;3.20;81.60;;;;;;5050244;28;20020;-73
2021/01/16 06:42:38;;;;;;;31.33;20.23;;;3.20;80.60;;;;;;5032908;28;20115;-78
2021/01/16 06:45:09;;;;;;;34.70;20.37;;;3.10;80.10;;;;;;5031804;28;20086;-74
2021/01/16 06:47:36;;;;;;;32.53;19.50;;;3.00;80.40;;;;;;5050750;28;20531;-74
2021/01/16 06:50:07;;;;;;;31.83;20.10;;;2.90;80.60;;;;;;5031636;28;20118;-75
2021/01/16 06:52:38;;;;;;;30.97;20.27;;;2.90;80.80;;;;;;5033110;28;20055;-74
2021/01/16 06:55:06;;;;;;;32.90;18.93;;;2.90;80.90;;;;;;5015515;28;20025;-74
2021/01/16 06:57:32;;;;;;;31.30;19.87;;;2.90;81.00;;;;;;5050369;28;20031;-74
2021/01/16 07:00:00;;;;;;;32.60;20.40;;;2.90;81.00;;;;;;5015654;28;20033;-75
2021/01/16 07:02:31;;;;;;;34.93;20.63;;;2.90;80.60;;;;;;5050829;28;20457;-73
2021/01/16 07:04:59;;;;;;;31.83;20.93;;;2.90;80.60;;;;;;5049862;28;20028;-73
2021/01/16 07:07:30;;;;;;;27.03;17.37;;;2.80;80.40;;;;;;5032348;28;20031;-74
2021/01/16 07:09:58;;;;;;;32.30;20.23;;;2.80;81.10;;;;;;5049454;28;20029;-76
2021/01/16 07:12:24;;;;;;;30.13;18.70;;;2.90;81.20;;;;;;5016470;28;20029;-73
2021/01/16 07:14:50;;;;;;;32.40;20.83;;;2.90;81.30;;;;;;5032405;28;20515;-74
2021/01/16 07:17:19;;;;;;;31.90;18.73;;;2.90;81.20;;;;;;5049800;28;20045;-74
2021/01/16 07:19:45;;;;;;;30.47;19.50;;;2.90;81.40;;;;;;5032761;28;20082;-74
2021/01/16 07:22:11;;;;;;;29.90;20.00;;;2.90;81.50;;;;;;5032057;28;20424;-73
2021/01/16 07:24:37;;;;;;;35.47;20.87;;;3.00;81.60;;;;;;5029142;28;20144;-73
2021/01/16 07:27:06;;;;;;;29.23;18.87;;;3.10;81.70;;;;;;5012085;28;20033;-74
2021/01/16 07:29:38;;;;;;;28.50;18.57;;;3.10;81.70;;;;;;5030499;28;20419;-75
2021/01/16 07:32:16;;;;;;;29.90;20.43;;;3.20;81.60;;;;;;5028591;28;20030;-73
2021/01/16 07:34:47;;;;;;;30.90;18.73;;;3.20;81.00;;;;;;5030475;28;20026;-73
2021/01/16 07:37:14;;;;;;;29.63;18.00;;;3.20;80.80;;;;;;5011482;28;20026;-73
2021/01/16 07:39:43;;;;;;;29.53;18.33;;;3.20;81.10;;;;;;5030471;28;20069;-73
2021/01/16 07:42:14;;;;;;;29.20;18.77;;;3.20;81.60;;;;;;5028262;28;20466;-73
2021/01/16 07:44:45;;;;;;;26.27;17.47;;;3.20;81.30;;;;;;5029049;28;20045;-74
2021/01/16 07:47:22;;;;;;;32.13;18.60;;;3.30;81.50;;;;;;5025289;28;20036;-74
2021/01/16 07:49:57;;;;;;;32.03;20.53;;;3.30;81.70;;;;;;5028483;28;20037;-74
2021/01/16 07:52:25;;;;;;;28.60;18.50;;;3.30;80.50;;;;;;5028317;28;20057;-73
2021/01/16 07:55:04;;;;;;;28.90;18.50;;;3.30;80.90;;;;;;5027526;28;20032;-73
2021/01/16 07:57:32;;;;;;;32.97;19.00;;;3.30;81.00;;;;;;5028828;28;20056;-73
2021/01/16 08:00:04;;;;;;;28.67;18.33;;;3.20;80.50;;;;;;5028315;28;20072;-80
2021/01/16 08:02:32;;;;;;;30.00;19.50;;;3.30;81.10;;;;;;5031023;28;20140;-73
2021/01/16 08:05:09;;;;;;;27.83;18.90;;;3.30;80.80;;;;;;5034152;28;20017;-73
2021/01/16 08:08:13;;;;;;;30.73;20.20;;;3.30;81.30;;;;;;5033790;28;20100;-74
2021/01/16 08:10:42;;;;;;;32.23;21.30;;;3.50;81.30;;;;;;5031961;28;20053;-74
2021/01/16 08:13:12;;;;;;;32.83;20.80;;;3.50;80.40;;;;;;5032947;28;20022;-74
2021/01/16 08:15:42;;;;;;;32.77;20.90;;;3.40;80.20;;;;;;5032287;28;20030;-73
2021/01/16 08:18:17;;;;;;;34.27;21.13;;;3.50;80.60;;;;;;5014953;28;20473;-76
2021/01/16 08:20:46;;;;;;;31.70;20.97;;;3.60;80.70;;;;;;5032074;28;20033;-74
2021/01/16 08:23:24;;;;;;;35.57;21.40;;;3.70;80.70;;;;;;5034342;28;20026;-73
2021/01/16 08:25:50;;;;;;;32.13;20.53;;;3.70;80.20;;;;;;5053610;28;20088;-72
2021/01/16 08:28:25;;;;;;;33.80;21.57;;;3.70;79.50;;;;;;5018249;28;20075;-72
2021/01/16 08:30:51;;;;;;;36.87;21.20;;;3.60;79.60;;;;;;5034984;28;20041;-74
2021/01/16 08:33:17;;;;;;;36.07;21.73;;;3.60;79.00;;;;;;5051743;28;20040;-74
2021/01/16 08:35:44;;;;;;;32.87;20.83;;;3.60;79.30;;;;;;5016504;28;20532;-74
2021/01/16 08:38:16;;;;;;;36.23;21.87;;;3.60;79.70;;;;;;5033522;28;20029;-74
2021/01/16 08:41:06;;;;;;;42.50;24.77;;;3.60;79.70;;;;;;5032790;28;20501;-74
2021/01/16 08:43:32;;;;;;;35.50;22.20;;;3.70;80.00;;;;;;5015286;28;20482;-73
2021/01/16 08:46:08;;;;;;;37.97;23.43;;;3.80;79.20;;;;;;5025344;28;20083;-74
2021/01/16 08:48:34;;;;;;;36.20;23.43;;;3.70;79.60;;;;;;5052558;28;20119;-73
2021/01/16 08:50:59;;;;;;;36.90;23.60;;;3.80;79.60;;;;;;5053021;28;20128;-74
2021/01/16 08:53:26;;;;;;;36.00;22.40;;;3.90;79.90;;;;;;5034562;28;20036;-73
2021/01/16 08:55:52;;;;;;;36.53;22.63;;;4.00;79.20;;;;;;5035355;28;20040;-74
2021/01/16 08:58:18;;;;;;;45.43;28.17;;;4.00;79.10;;;;;;5052165;28;20025;-75
2021/01/16 09:00:43;;;;;;;47.77;28.23;;;4.10;80.90;;;;;;5044599;28;20037;-74
2021/01/16 09:03:21;;;;;;;46.53;28.47;;;4.50;81.70;;;;;;5032600;28;20033;-80
2021/01/16 09:05:58;;;;;;;45.17;26.90;;;4.80;80.50;;;;;;5034506;28;20083;-75
2021/01/16 09:08:26;;;;;;;39.57;25.53;;;5.00;79.50;;;;;;5052363;28;20429;-73
2021/01/16 09:10:53;;;;;;;42.30;24.50;;;5.10;78.00;;;;;;5052382;28;20041;-74
2021/01/16 09:13:27;;;;;;;47.67;27.63;;;5.20;77.30;;;;;;5033737;28;20024;-73
2021/01/16 09:15:54;;;;;;;42.47;26.10;;;5.20;77.50;;;;;;5051638;28;20056;-74
2021/01/16 09:18:19;;;;;;;43.73;25.67;;;5.30;77.40;;;;;;5032161;28;20449;-73
2021/01/16 09:20:54;;;;;;;46.47;28.50;;;5.40;76.60;;;;;;4998315;28;20033;-73
2021/01/16 09:23:20;;;;;;;41.63;25.10;;;5.50;77.80;;;;;;5033107;28;20507;-73
2021/01/16 09:25:55;;;;;;;32.30;21.13;;;5.70;77.70;;;;;;5052301;28;20068;-73
2021/01/16 09:28:50;;;;;;;28.33;18.47;;;5.70;76.40;;;;;;5051600;28;20020;-74
2021/01/16 09:31:30;;;;;;;28.40;18.70;;;5.70;74.80;;;;;;5033555;28;20071;-74
2021/01/16 09:34:06;;;;;;;31.93;19.23;;;5.70;73.40;;;;;;5051941;28;20033;-74
2021/01/16 09:36:38;;;;;;;29.70;19.23;;;5.70;71.90;;;;;;5050055;28;20104;-74
2021/01/16 09:39:17;;;;;;;27.10;17.57;;;5.60;72.10;;;;;;5051627;28;20036;-74
2021/01/16 09:41:45;;;;;;;26.23;17.13;;;5.60;71.20;;;;;;5034608;28;20029;-74
2021/01/16 09:44:11;;;;;;;25.27;16.27;;;5.60;71.40;;;;;;5015971;28;20094;-77
2021/01/16 09:46:40;;;;;;;23.63;16.43;;;5.50;71.20;;;;;;5050688;28;20029;-74
2021/01/16 09:49:08;;;;;;;24.43;15.67;;;5.40;70.90;;;;;;5033363;28;20119;-74
2021/01/16 09:51:35;;;;;;;22.77;15.60;;;5.20;71.50;;;;;;5030548;28;20037;-74
2021/01/16 09:54:08;;;;;;;23.07;15.20;;;5.30;71.90;;;;;;5053248;28;20376;-75
2021/01/16 09:56:44;;;;;;;;;;;5.20;72.30;;;;;;5033342;28;20028;-73
2021/01/16 09:59:13;;;;;;;24.20;14.80;;;5.10;72.10;;;;;;5033991;28;19909;-74
2021/01/16 10:01:40;;;;;;;25.57;15.03;;;5.00;72.20;;;;;;5050903;28;20056;-74
2021/01/16 10:04:21;;;;;;;26.83;15.20;;;4.80;71.30;;;;;;5033719;28;20835;-74
2021/01/16 10:06:48;;;;;;;24.23;15.13;;;4.90;72.50;;;;;;5051973;28;20059;-75
2021/01/16 10:09:21;;;;;;;22.80;15.53;;;5.00;72.80;;;;;;5032300;28;20040;-75
2021/01/16 10:11:47;;;;;;;22.38;14.82;;;5.00;72.10;;;;;;5031921;28;20041;-74
2021/01/16 10:14:20;;;;;;;23.27;14.67;;;5.10;72.10;;;;;;5032575;28;20508;-73
2021/01/16 10:16:50;;;;;;;22.45;15.40;;;5.10;71.50;;;;;;5030382;28;20426;-73
2021/01/16 10:19:17;;;;;;;23.50;15.87;;;5.00;71.70;;;;;;5034222;28;20032;-77
2021/01/16 10:21:56;;;;;;;25.57;16.30;;;5.00;71.80;;;;;;5016317;28;20033;-75
2021/01/16 10:24:24;;;;;;;24.83;15.93;;;5.00;71.90;;;;;;5047482;28;20049;-74
2021/01/16 10:26:51;;;;;;;24.60;15.73;;;5.00;71.00;;;;;;5038427;28;20464;-73
2021/01/16 10:29:37;;;;;;;25.23;14.97;;;4.90;71.30;;;;;;5070940;28;20048;-74
2021/01/16 10:32:24;;;;;;;26.80;16.13;;;5.00;71.40;;;;;;5035299;28;20036;-74
2021/01/16 10:34:51;;;;;;;24.70;15.27;;;5.10;71.30;;;;;;5050041;28;20552;-75
2021/01/16 10:37:18;;;;;;;28.20;17.23;;;5.10;71.80;;;;;;5050954;28;20060;-74
2021/01/16 10:39:50;;;;;;;25.67;15.97;;;5.20;72.10;;;;;;5050114;28;20037;-74
2021/01/16 10:42:17;;;;;;;27.70;17.35;;;5.30;70.70;;;;;;5050410;28;20107;-74
2021/01/16 10:44:44;;;;;;;26.17;17.33;;;5.30;71.20;;;;;;5032028;28;20657;-75
2021/01/16 10:47:36;;;;;;;26.70;17.70;;;5.40;71.60;;;;;;5050947;28;20048;-74
2021/01/16 10:50:11;;;;;;;28.13;18.07;;;5.40;71.90;;;;;;5044059;28;20042;-74
2021/01/16 10:52:38;;;;;;;26.20;17.13;;;5.60;72.00;;;;;;5016795;28;20056;-75
2021/01/16 10:55:07;;;;;;;26.93;17.07;;;5.70;71.80;;;;;;5013114;28;20080;-75
2021/01/16 10:57:41;;;;;;;28.47;18.20;;;5.60;70.50;;;;;;5030279;28;20033;-73
2021/01/16 11:00:17;;;;;;;27.63;18.13;;;5.70;70.60;;;;;;5031723;28;20075;-75
2021/01/16 11:02:44;;;;;;;28.10;17.57;;;5.70;70.80;;;;;;5014709;28;20095;-75
2021/01/16 11:05:16;;;;;;;25.60;17.17;;;5.60;68.20;;;;;;5015771;28;20021;-74
2021/01/16 11:07:43;;;;;;;27.80;17.80;;;5.50;68.80;;;;;;5030232;28;20043;-75
2021/01/16 11:10:11;;;;;;;30.77;19.03;;;5.40;69.90;;;;;;5031989;28;20552;-75
2021/01/16 11:12:38;;;;;;;30.73;18.07;;;5.60;70.90;;;;;;5030577;28;20033;-73
2021/01/16 11:15:19;;;;;;;25.63;16.90;;;5.50;69.80;;;;;;5017454;28;20039;-74
2021/01/16 11:17:49;;;;;;;28.27;19.47;;;5.40;69.90;;;;;;5033402;28;20028;-75
2021/01/16 11:20:29;;;;;;;29.03;18.13;;;5.50;69.30;;;;;;5036504;28;20443;-74
2021/01/16 11:23:03;;;;;;;29.57;18.03;;;5.50;69.60;;;;;;5033215;28;20116;-75
2021/01/16 11:25:46;;;;;;;27.57;15.10;;;5.40;67.90;;;;;;5029512;28;20049;-77
2021/01/16 11:28:19;;;;;;;25.85;15.95;;;5.30;67.40;;;;;;5015130;28;20480;-76
2021/01/16 11:30:46;;;;;;;20.95;14.25;;;5.20;68.70;;;;;;5030508;28;20029;-74
2021/01/16 11:33:23;;;;;;;19.93;12.50;;;5.30;68.10;;;;;;5034070;28;20446;-73
2021/01/16 11:35:55;;;;;;;20.87;13.33;;;5.20;66.30;;;;;;5035075;28;20033;-75
2021/01/16 11:38:41;;;;;;;16.97;11.13;;;5.20;68.50;;;;;;5056685;28;20726;-74
2021/01/16 11:41:07;;;;;;;19.53;12.37;;;5.10;67.60;;;;;;5038072;28;20295;-74
2021/01/16 11:43:34;;;;;;;19.00;11.80;;;5.10;68.00;;;;;;5021745;28;20484;-73
2021/01/16 11:46:03;;;;;;;16.90;10.83;;;5.10;68.00;;;;;;5009019;28;20029;-75
2021/01/16 11:48:32;;;;;;;20.23;12.50;;;5.20;66.20;;;;;;5038314;28;20029;-79
2021/01/16 11:50:58;;;;;;;17.07;11.33;;;5.10;67.40;;;;;;5038508;28;20477;-75
2021/01/16 11:53:25;;;;;;;16.30;11.20;;;5.10;67.70;;;;;;5057319;28;20049;-74
2021/01/16 11:55:51;;;;;;;16.13;10.87;;;5.10;66.70;;;;;;5037024;28;20151;-75
2021/01/16 11:58:16;;;;;;;17.80;11.20;;;5.10;67.50;;;;;;5038513;28;20429;-74
2021/01/16 12:00:44;;;;;;;18.33;11.60;;;5.00;66.10;;;;;;5059653;28;20044;-75
2021/01/16 12:03:10;;;;;;;16.63;11.37;;;5.00;66.60;;;;;;5042652;28;20033;-75
2021/01/16 12:05:36;;;;;;;17.30;11.27;;;5.10;68.40;;;;;;5022335;28;20033;-74
2021/01/16 12:08:02;;;;;;;14.73;9.67;;;5.20;67.70;;;;;;5055154;28;20052;-76
2021/01/16 12:10:29;;;;;;;15.30;10.13;;;5.20;64.10;;;;;;5002754;28;20033;-74
2021/01/16 12:12:56;;;;;;;12.70;9.27;;;5.10;66.30;;;;;;5035338;28;20082;-75
2021/01/16 12:15:28;;;;;;;10.20;7.53;;;5.10;65.30;;;;;;5019524;28;20036;-74
2021/01/16 12:17:55;;;;;;;9.23;6.53;;;5.10;66.10;;;;;;5052903;28;20610;-74
2021/01/16 12:20:24;;;;;;;9.60;6.63;;;5.00;64.90;;;;;;5033764;28;20473;-75
2021/01/16 12:22:58;;;;;;;9.87;6.83;;;4.90;64.60;;;;;;5035661;28;20024;-74
2021/01/16 12:25:29;;;;;;;10.57;7.57;;;5.00;65.30;;;;;;5034347;28;20060;-74
2021/01/16 12:27:55;;;;;;;9.60;6.80;;;5.00;66.20;;;;;;5035605;28;20021;-75
2021/01/16 12:30:23;;;;;;;6.10;4.57;;;5.00;65.40;;;;;;5054473;28;20033;-74
2021/01/16 12:32:51;;;;;;;10.07;6.27;;;5.00;64.50;;;;;;5019264;28;20107;-74
2021/01/16 12:35:24;;;;;;;9.43;5.50;;;4.90;63.00;;;;;;5036476;28;20031;-75
2021/01/16 12:37:50;;;;;;;9.57;6.23;;;4.80;63.00;;;;;;5051944;28;20056;-74
2021/01/16 12:40:18;;;;;;;10.20;6.77;;;4.80;63.80;;;;;;5053917;28;20115;-74
2021/01/16 12:42:45;;;;;;;11.77;7.13;;;4.80;64.10;;;;;;5036808;28;20484;-74
2021/01/16 12:45:16;;;;;;;10.90;6.70;;;4.90;64.80;;;;;;5039299;28;20040;-75
2021/01/16 12:47:44;;;;;;;11.87;7.70;;;4.90;64.40;;;;;;5033854;28;20021;-74
2021/01/16 12:50:11;;;;;;;11.80;7.43;;;4.90;64.80;;;;;;5015688;28;20095;-75